메인 페이지
METAR-TAF:

METAR-TAF

공항 :

마나과, 니카라과

위도: 12-09N, 경도: 086-10W, 고도: 50m

현재 날씨관측

예보는 1 시간 17분 전, 15:00시(UTC)에 발표되었습니다.
동북동12kt
온도 29°C
습도 66%
기압 1016 hPa
시정 10km 이상
고도 2300ft 상공 구름 보통

METAR: MNMG 021500Z 06012KT 9999 SCT023 29/22 Q1015 A2999 NOSIG

시각: 10:17 (16:17 UTC)

예보

예보는 5 시간 55분 전, 10:22시(UTC)에 발표되었습니다.
예보 대상 시간: 02일 12시부터 03일 12시까지 (UTC)
8kt
시정 10km 이상
고도 2200ft 상공 구름 조금
일시적
02일 15시부터 02일 22시까지 (UTC)
14kt, 순간 최대 풍속 24kt
고도 2300ft 상공 구름 조금
전환 중
02일 23시부터 03일 01시까지 (UTC)
동남동12kt

TAF: MNMG 021022Z 0212/0312 09008KT 9999 FEW022 TEMPO 0215/0222 08014G24KT FEW023 BECMG 0223/0301 11012KT

4,000개 이상의 공항 관측 자료 및 예보 (METAR 및 TAF 보고).

지도상에서 검색 가능한 기상관측소가 노란 점과 빨간 점으로 표시되어 있습니다.

기상관측소 명을 보려면 표시 위로 마우스를 이동하세요.

날씨 관측과 예보를 보려면 클릭하세요.

지도 변경 : 확대하려면 엑스 표시가 있는 녹색 버튼, 축소하려면 빼기 표시가 있는 녹색 버튼, 다음 페이지의 지도를 보려면 녹색 화살표를 클릭하세요.


METAR-TAF: